sensor_id;sensor_type;location;lat;lon;timestamp;P1;durP1;ratioP1;P2;durP2;ratioP2
15312;SDS011;7757;52.626;4.746;2023-04-01T00:01:30;9.52;;;1.98;;
15312;SDS011;7757;52.626;4.746;2023-04-01T00:04:16;7.30;;;1.65;;
15312;SDS011;7757;52.626;4.746;2023-04-01T00:07:01;8.27;;;1.60;;
15312;SDS011;7757;52.626;4.746;2023-04-01T00:09:47;11.77;;;2.05;;
15312;SDS011;7757;52.626;4.746;2023-04-01T00:12:32;9.18;;;1.63;;
15312;SDS011;7757;52.626;4.746;2023-04-01T00:15:19;14.05;;;2.10;;
15312;SDS011;7757;52.626;4.746;2023-04-01T00:18:05;9.40;;;1.83;;
15312;SDS011;7757;52.626;4.746;2023-04-01T00:20:51;8.70;;;1.80;;
15312;SDS011;7757;52.626;4.746;2023-04-01T00:23:37;9.50;;;1.60;;
15312;SDS011;7757;52.626;4.746;2023-04-01T00:26:22;9.98;;;1.80;;
15312;SDS011;7757;52.626;4.746;2023-04-01T00:29:09;8.25;;;1.65;;
15312;SDS011;7757;52.626;4.746;2023-04-01T00:31:56;11.15;;;1.75;;
15312;SDS011;7757;52.626;4.746;2023-04-01T00:34:42;8.82;;;1.50;;
15312;SDS011;7757;52.626;4.746;2023-04-01T00:37:28;8.85;;;1.73;;
15312;SDS011;7757;52.626;4.746;2023-04-01T00:40:21;10.90;;;1.92;;
15312;SDS011;7757;52.626;4.746;2023-04-01T00:43:10;9.70;;;1.75;;
15312;SDS011;7757;52.626;4.746;2023-04-01T00:45:58;7.78;;;1.50;;
15312;SDS011;7757;52.626;4.746;2023-04-01T00:48:45;12.32;;;1.70;;
15312;SDS011;7757;52.626;4.746;2023-04-01T00:51:33;7.95;;;1.50;;
15312;SDS011;7757;52.626;4.746;2023-04-01T00:54:23;8.48;;;1.60;;
15312;SDS011;7757;52.626;4.746;2023-04-01T00:57:12;7.45;;;1.52;;
15312;SDS011;7757;52.626;4.746;2023-04-01T01:00:02;6.47;;;1.58;;
15312;SDS011;7757;52.626;4.746;2023-04-01T01:02:51;8.02;;;1.70;;
15312;SDS011;7757;52.626;4.746;2023-04-01T01:05:42;7.75;;;1.60;;
15312;SDS011;7757;52.626;4.746;2023-04-01T01:08:54;8.60;;;1.77;;
15312;SDS011;7757;52.626;4.746;2023-04-01T01:11:53;10.70;;;1.70;;
15312;SDS011;7757;52.626;4.746;2023-04-01T01:14:48;8.00;;;1.58;;
15312;SDS011;7757;52.626;4.746;2023-04-01T01:17:42;9.63;;;1.70;;
15312;SDS011;7757;52.626;4.746;2023-04-01T01:20:37;7.85;;;1.60;;
15312;SDS011;7757;52.626;4.746;2023-04-01T01:27:06;10.40;;;1.83;;
15312;SDS011;7757;52.626;4.746;2023-04-01T01:33:37;7.20;;;1.60;;
15312;SDS011;7757;52.626;4.746;2023-04-01T01:36:32;5.75;;;1.40;;
15312;SDS011;7757;52.626;4.746;2023-04-01T01:39:19;13.77;;;1.83;;
15312;SDS011;7757;52.626;4.746;2023-04-01T01:42:11;9.23;;;1.60;;
15312;SDS011;7757;52.626;4.746;2023-04-01T01:45:00;11.52;;;1.90;;
15312;SDS011;7757;52.626;4.746;2023-04-01T01:47:48;7.93;;;1.50;;
15312;SDS011;7757;52.626;4.746;2023-04-01T01:50:35;7.20;;;1.48;;
15312;SDS011;7757;52.626;4.746;2023-04-01T01:53:23;6.68;;;1.55;;
15312;SDS011;7757;52.626;4.746;2023-04-01T01:56:09;8.27;;;1.60;;
15312;SDS011;7757;52.626;4.746;2023-04-01T01:58:56;6.03;;;1.50;;
15312;SDS011;7757;52.626;4.746;2023-04-01T02:01:48;8.10;;;1.52;;
15312;SDS011;7757;52.626;4.746;2023-04-01T02:04:37;8.02;;;1.40;;
15312;SDS011;7757;52.626;4.746;2023-04-01T02:07:25;6.90;;;1.50;;
15312;SDS011;7757;52.626;4.746;2023-04-01T02:10:15;7.43;;;1.40;;
15312;SDS011;7757;52.626;4.746;2023-04-01T02:13:01;6.70;;;1.58;;
15312;SDS011;7757;52.626;4.746;2023-04-01T02:15:52;4.90;;;1.48;;
15312;SDS011;7757;52.626;4.746;2023-04-01T02:18:41;5.70;;;1.27;;
15312;SDS011;7757;52.626;4.746;2023-04-01T02:21:30;6.90;;;1.60;;
15312;SDS011;7757;52.626;4.746;2023-04-01T02:24:17;7.05;;;1.35;;
15312;SDS011;7757;52.626;4.746;2023-04-01T02:27:07;6.38;;;1.40;;
15312;SDS011;7757;52.626;4.746;2023-04-01T02:29:54;6.18;;;1.58;;
15312;SDS011;7757;52.626;4.746;2023-04-01T02:32:40;5.32;;;1.30;;
15312;SDS011;7757;52.626;4.746;2023-04-01T02:35:26;4.30;;;1.30;;
15312;SDS011;7757;52.626;4.746;2023-04-01T02:38:12;5.78;;;1.38;;
15312;SDS011;7757;52.626;4.746;2023-04-01T02:41:00;5.25;;;1.30;;
15312;SDS011;7757;52.626;4.746;2023-04-01T02:43:50;6.75;;;1.33;;
15312;SDS011;7757;52.626;4.746;2023-04-01T02:46:35;9.75;;;1.48;;
15312;SDS011;7757;52.626;4.746;2023-04-01T02:49:21;8.32;;;1.77;;
15312;SDS011;7757;52.626;4.746;2023-04-01T02:52:06;6.30;;;1.55;;
15312;SDS011;7757;52.626;4.746;2023-04-01T02:54:52;8.18;;;1.55;;
15312;SDS011;7757;52.626;4.746;2023-04-01T02:57:37;5.32;;;1.25;;
15312;SDS011;7757;52.626;4.746;2023-04-01T03:00:24;6.07;;;1.40;;
15312;SDS011;7757;52.626;4.746;2023-04-01T03:03:10;5.90;;;1.40;;
15312;SDS011;7757;52.626;4.746;2023-04-01T03:05:57;10.20;;;1.42;;
15312;SDS011;7757;52.626;4.746;2023-04-01T03:08:43;7.53;;;1.27;;
15312;SDS011;7757;52.626;4.746;2023-04-01T03:11:29;5.70;;;1.23;;
15312;SDS011;7757;52.626;4.746;2023-04-01T03:14:14;4.03;;;1.15;;
15312;SDS011;7757;52.626;4.746;2023-04-01T03:17:01;6.55;;;1.45;;
15312;SDS011;7757;52.626;4.746;2023-04-01T03:19:46;3.08;;;1.05;;
15312;SDS011;7757;52.626;4.746;2023-04-01T03:22:32;4.32;;;1.23;;
15312;SDS011;7757;52.626;4.746;2023-04-01T03:25:17;4.38;;;1.27;;
15312;SDS011;7757;52.626;4.746;2023-04-01T03:28:03;6.75;;;1.20;;
15312;SDS011;7757;52.626;4.746;2023-04-01T03:30:49;5.68;;;1.30;;
15312;SDS011;7757;52.626;4.746;2023-04-01T03:33:36;7.15;;;1.20;;
15312;SDS011;7757;52.626;4.746;2023-04-01T03:36:21;5.68;;;1.10;;
15312;SDS011;7757;52.626;4.746;2023-04-01T03:39:07;4.82;;;1.30;;
15312;SDS011;7757;52.626;4.746;2023-04-01T03:41:52;5.53;;;1.10;;
15312;SDS011;7757;52.626;4.746;2023-04-01T03:44:37;3.88;;;1.20;;
15312;SDS011;7757;52.626;4.746;2023-04-01T03:47:23;5.70;;;1.10;;
15312;SDS011;7757;52.626;4.746;2023-04-01T03:50:10;4.35;;;1.30;;
15312;SDS011;7757;52.626;4.746;2023-04-01T03:52:55;5.15;;;1.10;;
15312;SDS011;7757;52.626;4.746;2023-04-01T03:55:41;3.60;;;0.95;;
15312;SDS011;7757;52.626;4.746;2023-04-01T03:58:26;3.55;;;1.00;;
15312;SDS011;7757;52.626;4.746;2023-04-01T04:01:16;5.95;;;1.25;;
15312;SDS011;7757;52.626;4.746;2023-04-01T04:04:04;5.35;;;1.17;;
15312;SDS011;7757;52.626;4.746;2023-04-01T04:06:51;5.00;;;1.10;;
15312;SDS011;7757;52.626;4.746;2023-04-01T04:09:36;7.72;;;1.30;;
15312;SDS011;7757;52.626;4.746;2023-04-01T04:12:22;5.65;;;1.20;;
15312;SDS011;7757;52.626;4.746;2023-04-01T04:15:07;5.93;;;1.20;;
15312;SDS011;7757;52.626;4.746;2023-04-01T04:17:53;5.32;;;1.58;;
15312;SDS011;7757;52.626;4.746;2023-04-01T04:20:42;4.03;;;1.30;;
15312;SDS011;7757;52.626;4.746;2023-04-01T04:23:32;4.80;;;1.17;;
15312;SDS011;7757;52.626;4.746;2023-04-01T04:26:17;6.20;;;1.25;;
15312;SDS011;7757;52.626;4.746;2023-04-01T04:29:03;4.63;;;1.10;;
15312;SDS011;7757;52.626;4.746;2023-04-01T04:31:48;4.53;;;1.00;;
15312;SDS011;7757;52.626;4.746;2023-04-01T04:34:33;4.15;;;1.02;;
15312;SDS011;7757;52.626;4.746;2023-04-01T04:37:19;5.38;;;1.08;;
15312;SDS011;7757;52.626;4.746;2023-04-01T04:40:07;3.40;;;1.10;;
15312;SDS011;7757;52.626;4.746;2023-04-01T04:42:53;8.95;;;1.10;;
15312;SDS011;7757;52.626;4.746;2023-04-01T04:45:38;4.80;;;0.90;;
15312;SDS011;7757;52.626;4.746;2023-04-01T04:48:23;2.45;;;0.90;;
15312;SDS011;7757;52.626;4.746;2023-04-01T04:51:12;2.33;;;1.10;;
15312;SDS011;7757;52.626;4.746;2023-04-01T04:53:58;4.20;;;1.00;;
15312;SDS011;7757;52.626;4.746;2023-04-01T04:56:45;3.38;;;1.00;;
15312;SDS011;7757;52.626;4.746;2023-04-01T04:59:30;4.57;;;0.98;;
15312;SDS011;7757;52.626;4.746;2023-04-01T05:02:16;4.30;;;1.23;;
15312;SDS011;7757;52.626;4.746;2023-04-01T05:05:01;4.25;;;1.13;;
15312;SDS011;7757;52.626;4.746;2023-04-01T05:07:48;2.22;;;0.90;;
15312;SDS011;7757;52.626;4.746;2023-04-01T05:10:33;2.55;;;0.90;;
15312;SDS011;7757;52.626;4.746;2023-04-01T05:13:20;3.03;;;0.75;;
15312;SDS011;7757;52.626;4.746;2023-04-01T05:16:07;3.28;;;0.90;;
15312;SDS011;7757;52.626;4.746;2023-04-01T05:18:53;7.32;;;1.50;;
15312;SDS011;7757;52.626;4.746;2023-04-01T05:21:39;1.77;;;0.85;;
15312;SDS011;7757;52.626;4.746;2023-04-01T05:24:24;6.57;;;1.08;;
15312;SDS011;7757;52.626;4.746;2023-04-01T05:27:10;2.45;;;0.85;;
15312;SDS011;7757;52.626;4.746;2023-04-01T05:29:56;4.47;;;0.93;;
15312;SDS011;7757;52.626;4.746;2023-04-01T05:32:42;4.03;;;1.00;;
15312;SDS011;7757;52.626;4.746;2023-04-01T05:35:27;3.67;;;0.90;;
15312;SDS011;7757;52.626;4.746;2023-04-01T05:38:13;5.85;;;1.52;;
15312;SDS011;7757;52.626;4.746;2023-04-01T05:40:58;3.22;;;1.00;;
15312;SDS011;7757;52.626;4.746;2023-04-01T05:43:44;3.33;;;0.98;;
15312;SDS011;7757;52.626;4.746;2023-04-01T05:46:31;2.40;;;0.90;;
15312;SDS011;7757;52.626;4.746;2023-04-01T05:49:17;4.57;;;1.13;;
15312;SDS011;7757;52.626;4.746;2023-04-01T05:52:02;6.07;;;1.20;;
15312;SDS011;7757;52.626;4.746;2023-04-01T05:54:47;2.63;;;1.00;;
15312;SDS011;7757;52.626;4.746;2023-04-01T05:57:33;5.78;;;1.13;;
15312;SDS011;7757;52.626;4.746;2023-04-01T06:00:18;4.07;;;1.10;;
15312;SDS011;7757;52.626;4.746;2023-04-01T06:03:06;4.90;;;1.10;;
15312;SDS011;7757;52.626;4.746;2023-04-01T06:05:51;7.07;;;1.20;;
15312;SDS011;7757;52.626;4.746;2023-04-01T06:08:36;5.97;;;1.20;;
15312;SDS011;7757;52.626;4.746;2023-04-01T06:11:24;4.30;;;1.02;;
15312;SDS011;7757;52.626;4.746;2023-04-01T06:14:22;5.13;;;1.20;;
15312;SDS011;7757;52.626;4.746;2023-04-01T06:17:18;5.03;;;1.20;;
15312;SDS011;7757;52.626;4.746;2023-04-01T06:20:14;6.30;;;1.23;;
15312;SDS011;7757;52.626;4.746;2023-04-01T06:23:13;5.60;;;1.25;;
15312;SDS011;7757;52.626;4.746;2023-04-01T06:26:14;6.00;;;1.50;;
15312;SDS011;7757;52.626;4.746;2023-04-01T06:29:22;8.18;;;1.80;;
15312;SDS011;7757;52.626;4.746;2023-04-01T06:35:33;8.80;;;1.83;;
15312;SDS011;7757;52.626;4.746;2023-04-01T06:38:29;8.10;;;1.80;;
15312;SDS011;7757;52.626;4.746;2023-04-01T06:41:37;8.30;;;2.00;;
15312;SDS011;7757;52.626;4.746;2023-04-01T06:44:46;9.80;;;2.00;;
15312;SDS011;7757;52.626;4.746;2023-04-01T06:47:43;8.20;;;1.88;;
15312;SDS011;7757;52.626;4.746;2023-04-01T06:50:44;10.20;;;1.90;;
15312;SDS011;7757;52.626;4.746;2023-04-01T06:53:39;9.60;;;1.90;;
15312;SDS011;7757;52.626;4.746;2023-04-01T06:56:32;9.30;;;1.88;;
15312;SDS011;7757;52.626;4.746;2023-04-01T06:59:18;7.50;;;1.80;;
15312;SDS011;7757;52.626;4.746;2023-04-01T07:02:06;8.25;;;1.80;;
15312;SDS011;7757;52.626;4.746;2023-04-01T07:05:03;9.85;;;1.92;;
15312;SDS011;7757;52.626;4.746;2023-04-01T07:07:52;8.52;;;1.88;;
15312;SDS011;7757;52.626;4.746;2023-04-01T07:10:43;8.65;;;2.10;;
15312;SDS011;7757;52.626;4.746;2023-04-01T07:13:34;7.07;;;1.80;;
15312;SDS011;7757;52.626;4.746;2023-04-01T07:16:25;10.10;;;1.77;;
15312;SDS011;7757;52.626;4.746;2023-04-01T07:19:16;8.75;;;1.85;;
15312;SDS011;7757;52.626;4.746;2023-04-01T07:22:10;9.20;;;1.70;;
15312;SDS011;7757;52.626;4.746;2023-04-01T07:25:11;8.15;;;1.60;;
15312;SDS011;7757;52.626;4.746;2023-04-01T07:28:00;7.20;;;1.55;;
15312;SDS011;7757;52.626;4.746;2023-04-01T07:30:48;8.10;;;1.77;;
15312;SDS011;7757;52.626;4.746;2023-04-01T07:33:44;8.60;;;1.77;;
15312;SDS011;7757;52.626;4.746;2023-04-01T07:36:39;8.10;;;1.70;;
15312;SDS011;7757;52.626;4.746;2023-04-01T07:39:32;8.15;;;1.63;;
15312;SDS011;7757;52.626;4.746;2023-04-01T07:42:29;9.25;;;1.85;;
15312;SDS011;7757;52.626;4.746;2023-04-01T07:45:27;5.85;;;1.70;;
15312;SDS011;7757;52.626;4.746;2023-04-01T07:48:22;11.45;;;1.73;;
15312;SDS011;7757;52.626;4.746;2023-04-01T07:51:17;5.75;;;1.33;;
15312;SDS011;7757;52.626;4.746;2023-04-01T07:54:09;5.93;;;1.55;;
15312;SDS011;7757;52.626;4.746;2023-04-01T07:57:02;8.20;;;1.70;;
15312;SDS011;7757;52.626;4.746;2023-04-01T07:59:58;6.63;;;1.60;;
15312;SDS011;7757;52.626;4.746;2023-04-01T08:02:51;7.65;;;1.58;;
15312;SDS011;7757;52.626;4.746;2023-04-01T08:05:50;6.55;;;1.50;;
15312;SDS011;7757;52.626;4.746;2023-04-01T08:08:43;6.70;;;1.60;;
15312;SDS011;7757;52.626;4.746;2023-04-01T08:11:40;7.90;;;1.60;;
15312;SDS011;7757;52.626;4.746;2023-04-01T08:14:33;5.20;;;1.40;;
15312;SDS011;7757;52.626;4.746;2023-04-01T08:17:28;8.87;;;1.90;;
15312;SDS011;7757;52.626;4.746;2023-04-01T08:20:24;6.63;;;1.40;;
15312;SDS011;7757;52.626;4.746;2023-04-01T08:23:18;5.65;;;1.40;;
15312;SDS011;7757;52.626;4.746;2023-04-01T08:26:08;8.95;;;1.50;;
15312;SDS011;7757;52.626;4.746;2023-04-01T08:28:59;6.80;;;1.63;;
15312;SDS011;7757;52.626;4.746;2023-04-01T08:31:49;5.10;;;1.30;;
15312;SDS011;7757;52.626;4.746;2023-04-01T08:34:42;6.97;;;1.90;;
15312;SDS011;7757;52.626;4.746;2023-04-01T08:37:32;5.63;;;1.33;;
15312;SDS011;7757;52.626;4.746;2023-04-01T08:40:28;9.90;;;1.58;;
15312;SDS011;7757;52.626;4.746;2023-04-01T08:43:28;6.70;;;1.50;;
15312;SDS011;7757;52.626;4.746;2023-04-01T08:49:54;6.30;;;1.48;;
15312;SDS011;7757;52.626;4.746;2023-04-01T08:52:52;6.13;;;1.40;;
15312;SDS011;7757;52.626;4.746;2023-04-01T08:55:51;7.30;;;1.67;;
15312;SDS011;7757;52.626;4.746;2023-04-01T08:59:01;8.85;;;1.83;;
15312;SDS011;7757;52.626;4.746;2023-04-01T09:02:04;7.78;;;1.58;;
15312;SDS011;7757;52.626;4.746;2023-04-01T09:05:16;7.50;;;1.60;;
15312;SDS011;7757;52.626;4.746;2023-04-01T09:08:15;7.50;;;1.52;;
15312;SDS011;7757;52.626;4.746;2023-04-01T09:11:14;6.82;;;1.40;;
15312;SDS011;7757;52.626;4.746;2023-04-01T09:14:17;5.68;;;1.50;;
15312;SDS011;7757;52.626;4.746;2023-04-01T09:17:19;6.00;;;1.45;;
15312;SDS011;7757;52.626;4.746;2023-04-01T09:20:29;5.85;;;1.45;;
15312;SDS011;7757;52.626;4.746;2023-04-01T09:23:35;5.93;;;1.38;;
15312;SDS011;7757;52.626;4.746;2023-04-01T09:26:40;6.25;;;1.33;;
15312;SDS011;7757;52.626;4.746;2023-04-01T09:32:58;7.75;;;1.75;;
15312;SDS011;7757;52.626;4.746;2023-04-01T09:36:07;14.75;;;3.80;;
15312;SDS011;7757;52.626;4.746;2023-04-01T09:39:06;10.18;;;2.85;;
15312;SDS011;7757;52.626;4.746;2023-04-01T09:42:15;10.57;;;2.95;;
15312;SDS011;7757;52.626;4.746;2023-04-01T09:45:18;11.52;;;3.00;;
15312;SDS011;7757;52.626;4.746;2023-04-01T09:48:21;14.57;;;2.72;;
15312;SDS011;7757;52.626;4.746;2023-04-01T09:51:27;10.60;;;2.23;;
15312;SDS011;7757;52.626;4.746;2023-04-01T09:54:22;8.40;;;2.30;;
15312;SDS011;7757;52.626;4.746;2023-04-01T10:00:52;10.70;;;2.28;;
15312;SDS011;7757;52.626;4.746;2023-04-01T10:07:25;8.95;;;2.00;;
15312;SDS011;7757;52.626;4.746;2023-04-01T10:10:42;7.07;;;1.80;;
15312;SDS011;7757;52.626;4.746;2023-04-01T10:17:00;10.02;;;1.95;;
15312;SDS011;7757;52.626;4.746;2023-04-01T10:20:19;8.00;;;2.03;;
15312;SDS011;7757;52.626;4.746;2023-04-01T10:33:31;8.40;;;1.80;;
15312;SDS011;7757;52.626;4.746;2023-04-01T10:36:50;10.48;;;1.70;;
15312;SDS011;7757;52.626;4.746;2023-04-01T10:39:49;7.28;;;1.63;;
15312;SDS011;7757;52.626;4.746;2023-04-01T10:43:04;6.32;;;1.50;;
15312;SDS011;7757;52.626;4.746;2023-04-01T10:49:46;7.80;;;1.65;;
15312;SDS011;7757;52.626;4.746;2023-04-01T10:53:03;5.60;;;1.50;;
15312;SDS011;7757;52.626;4.746;2023-04-01T10:56:22;6.88;;;1.60;;
15312;SDS011;7757;52.626;4.746;2023-04-01T11:06:12;7.25;;;1.70;;
15312;SDS011;7757;52.626;4.746;2023-04-01T11:12:48;7.38;;;1.48;;
15312;SDS011;7757;52.626;4.746;2023-04-01T11:16:18;6.50;;;1.50;;
15312;SDS011;7757;52.626;4.746;2023-04-01T11:19:31;5.63;;;1.50;;
15312;SDS011;7757;52.626;4.746;2023-04-01T11:22:41;5.72;;;1.30;;
15312;SDS011;7757;52.626;4.746;2023-04-01T11:25:49;6.30;;;1.55;;
15312;SDS011;7757;52.626;4.746;2023-04-01T11:29:02;5.65;;;1.45;;
15312;SDS011;7757;52.626;4.746;2023-04-01T11:32:04;4.75;;;1.30;;
15312;SDS011;7757;52.626;4.746;2023-04-01T11:35:02;5.45;;;1.50;;
15312;SDS011;7757;52.626;4.746;2023-04-01T11:38:06;5.97;;;1.50;;
15312;SDS011;7757;52.626;4.746;2023-04-01T11:41:07;5.80;;;1.30;;
15312;SDS011;7757;52.626;4.746;2023-04-01T11:44:08;5.97;;;1.42;;
15312;SDS011;7757;52.626;4.746;2023-04-01T11:47:17;7.70;;;1.75;;
15312;SDS011;7757;52.626;4.746;2023-04-01T11:50:21;9.05;;;1.75;;
15312;SDS011;7757;52.626;4.746;2023-04-01T11:53:19;7.30;;;1.77;;
15312;SDS011;7757;52.626;4.746;2023-04-01T11:56:14;8.98;;;1.70;;
15312;SDS011;7757;52.626;4.746;2023-04-01T12:02:33;5.85;;;1.38;;
15312;SDS011;7757;52.626;4.746;2023-04-01T12:05:36;5.85;;;1.52;;
15312;SDS011;7757;52.626;4.746;2023-04-01T12:08:31;5.65;;;1.40;;
15312;SDS011;7757;52.626;4.746;2023-04-01T12:11:28;6.05;;;1.40;;
15312;SDS011;7757;52.626;4.746;2023-04-01T12:14:21;8.27;;;1.70;;
15312;SDS011;7757;52.626;4.746;2023-04-01T12:17:19;4.82;;;1.40;;
15312;SDS011;7757;52.626;4.746;2023-04-01T12:20:24;8.02;;;1.55;;
15312;SDS011;7757;52.626;4.746;2023-04-01T12:23:20;7.63;;;1.60;;
15312;SDS011;7757;52.626;4.746;2023-04-01T12:26:24;7.45;;;1.50;;
15312;SDS011;7757;52.626;4.746;2023-04-01T12:29:46;7.45;;;1.55;;
15312;SDS011;7757;52.626;4.746;2023-04-01T12:32:40;5.32;;;1.25;;
15312;SDS011;7757;52.626;4.746;2023-04-01T12:35:34;10.07;;;1.30;;
15312;SDS011;7757;52.626;4.746;2023-04-01T12:38:35;7.05;;;1.48;;
15312;SDS011;7757;52.626;4.746;2023-04-01T12:41:30;6.75;;;1.60;;
15312;SDS011;7757;52.626;4.746;2023-04-01T12:47:52;12.00;;;2.58;;
15312;SDS011;7757;52.626;4.746;2023-04-01T12:50:56;6.88;;;1.30;;
15312;SDS011;7757;52.626;4.746;2023-04-01T12:54:06;7.82;;;1.40;;
15312;SDS011;7757;52.626;4.746;2023-04-01T12:57:07;4.95;;;1.40;;
15312;SDS011;7757;52.626;4.746;2023-04-01T13:00:08;8.05;;;1.50;;
15312;SDS011;7757;52.626;4.746;2023-04-01T13:03:17;7.50;;;1.52;;
15312;SDS011;7757;52.626;4.746;2023-04-01T13:06:25;6.47;;;1.50;;
15312;SDS011;7757;52.626;4.746;2023-04-01T13:09:20;7.10;;;1.65;;
15312;SDS011;7757;52.626;4.746;2023-04-01T13:12:18;7.68;;;1.40;;
15312;SDS011;7757;52.626;4.746;2023-04-01T13:15:24;7.75;;;1.55;;
15312;SDS011;7757;52.626;4.746;2023-04-01T13:18:17;6.88;;;1.25;;
15312;SDS011;7757;52.626;4.746;2023-04-01T13:21:11;4.47;;;1.23;;
15312;SDS011;7757;52.626;4.746;2023-04-01T13:24:05;6.68;;;1.50;;
15312;SDS011;7757;52.626;4.746;2023-04-01T13:27:01;5.32;;;1.20;;
15312;SDS011;7757;52.626;4.746;2023-04-01T13:29:59;6.22;;;1.45;;
15312;SDS011;7757;52.626;4.746;2023-04-01T13:32:57;5.72;;;1.27;;
15312;SDS011;7757;52.626;4.746;2023-04-01T13:35:48;5.07;;;1.55;;
15312;SDS011;7757;52.626;4.746;2023-04-01T13:38:48;7.80;;;1.80;;
15312;SDS011;7757;52.626;4.746;2023-04-01T13:41:55;7.05;;;1.80;;
15312;SDS011;7757;52.626;4.746;2023-04-01T13:45:00;12.13;;;1.60;;
15312;SDS011;7757;52.626;4.746;2023-04-01T13:48:02;5.13;;;1.50;;
15312;SDS011;7757;52.626;4.746;2023-04-01T13:51:14;9.30;;;1.70;;
15312;SDS011;7757;52.626;4.746;2023-04-01T13:57:44;7.22;;;1.50;;
15312;SDS011;7757;52.626;4.746;2023-04-01T14:00:42;5.60;;;1.50;;
15312;SDS011;7757;52.626;4.746;2023-04-01T14:03:43;7.65;;;1.70;;
15312;SDS011;7757;52.626;4.746;2023-04-01T14:06:38;7.90;;;1.50;;
15312;SDS011;7757;52.626;4.746;2023-04-01T14:09:54;5.45;;;1.52;;
15312;SDS011;7757;52.626;4.746;2023-04-01T14:12:49;6.68;;;1.65;;
15312;SDS011;7757;52.626;4.746;2023-04-01T14:15:47;6.13;;;1.58;;
15312;SDS011;7757;52.626;4.746;2023-04-01T14:18:52;7.20;;;1.50;;
15312;SDS011;7757;52.626;4.746;2023-04-01T14:21:49;7.88;;;1.50;;
15312;SDS011;7757;52.626;4.746;2023-04-01T14:28:03;9.02;;;2.15;;
15312;SDS011;7757;52.626;4.746;2023-04-01T14:31:04;6.45;;;1.40;;
15312;SDS011;7757;52.626;4.746;2023-04-01T14:34:05;6.63;;;1.35;;
15312;SDS011;7757;52.626;4.746;2023-04-01T14:37:19;6.72;;;1.58;;
15312;SDS011;7757;52.626;4.746;2023-04-01T14:46:45;6.18;;;1.30;;
15312;SDS011;7757;52.626;4.746;2023-04-01T14:49:52;6.38;;;1.52;;
15312;SDS011;7757;52.626;4.746;2023-04-01T14:52:50;6.25;;;1.48;;
15312;SDS011;7757;52.626;4.746;2023-04-01T14:55:46;5.97;;;1.50;;
15312;SDS011;7757;52.626;4.746;2023-04-01T14:58:44;8.27;;;1.50;;
15312;SDS011;7757;52.626;4.746;2023-04-01T15:01:33;5.82;;;1.48;;
15312;SDS011;7757;52.626;4.746;2023-04-01T15:04:32;6.82;;;1.40;;
15312;SDS011;7757;52.626;4.746;2023-04-01T15:07:35;3.53;;;1.30;;
15312;SDS011;7757;52.626;4.746;2023-04-01T15:14:23;10.50;;;3.10;;
15312;SDS011;7757;52.626;4.746;2023-04-01T15:17:26;7.70;;;1.60;;
15312;SDS011;7757;52.626;4.746;2023-04-01T15:20:31;4.32;;;1.30;;
15312;SDS011;7757;52.626;4.746;2023-04-01T15:23:31;4.50;;;1.40;;
15312;SDS011;7757;52.626;4.746;2023-04-01T15:26:31;6.32;;;1.20;;
15312;SDS011;7757;52.626;4.746;2023-04-01T15:29:29;5.70;;;1.30;;
15312;SDS011;7757;52.626;4.746;2023-04-01T15:32:38;4.20;;;1.20;;
15312;SDS011;7757;52.626;4.746;2023-04-01T15:35:35;5.28;;;1.40;;
15312;SDS011;7757;52.626;4.746;2023-04-01T15:38:32;4.82;;;1.20;;
15312;SDS011;7757;52.626;4.746;2023-04-01T15:41:25;3.08;;;1.30;;
15312;SDS011;7757;52.626;4.746;2023-04-01T15:44:36;4.20;;;1.20;;
15312;SDS011;7757;52.626;4.746;2023-04-01T15:47:39;5.40;;;1.38;;
15312;SDS011;7757;52.626;4.746;2023-04-01T15:53:44;5.63;;;1.33;;
15312;SDS011;7757;52.626;4.746;2023-04-01T15:56:56;5.82;;;1.50;;
15312;SDS011;7757;52.626;4.746;2023-04-01T16:00:02;3.10;;;1.30;;
15312;SDS011;7757;52.626;4.746;2023-04-01T16:03:06;4.60;;;1.33;;
15312;SDS011;7757;52.626;4.746;2023-04-01T16:06:11;3.90;;;1.20;;
15312;SDS011;7757;52.626;4.746;2023-04-01T16:12:07;5.15;;;1.27;;
15312;SDS011;7757;52.626;4.746;2023-04-01T16:18:07;4.47;;;1.30;;
15312;SDS011;7757;52.626;4.746;2023-04-01T16:21:06;5.80;;;1.42;;
15312;SDS011;7757;52.626;4.746;2023-04-01T16:23:58;6.32;;;1.20;;
15312;SDS011;7757;52.626;4.746;2023-04-01T16:26:50;4.75;;;1.27;;
15312;SDS011;7757;52.626;4.746;2023-04-01T16:29:41;5.30;;;1.40;;
15312;SDS011;7757;52.626;4.746;2023-04-01T16:32:43;3.17;;;1.25;;
15312;SDS011;7757;52.626;4.746;2023-04-01T16:35:37;6.78;;;1.42;;
15312;SDS011;7757;52.626;4.746;2023-04-01T16:38:32;4.75;;;1.27;;
15312;SDS011;7757;52.626;4.746;2023-04-01T16:41:24;3.28;;;1.15;;
15312;SDS011;7757;52.626;4.746;2023-04-01T16:44:17;3.33;;;1.20;;
15312;SDS011;7757;52.626;4.746;2023-04-01T16:47:06;4.78;;;1.30;;
15312;SDS011;7757;52.626;4.746;2023-04-01T16:49:59;5.97;;;1.35;;
15312;SDS011;7757;52.626;4.746;2023-04-01T16:53:00;6.32;;;1.52;;
15312;SDS011;7757;52.626;4.746;2023-04-01T16:55:55;6.30;;;1.40;;
15312;SDS011;7757;52.626;4.746;2023-04-01T16:58:55;5.43;;;1.35;;
15312;SDS011;7757;52.626;4.746;2023-04-01T17:01:48;5.45;;;1.30;;
15312;SDS011;7757;52.626;4.746;2023-04-01T17:04:38;4.45;;;1.25;;
15312;SDS011;7757;52.626;4.746;2023-04-01T17:07:32;6.05;;;1.40;;
15312;SDS011;7757;52.626;4.746;2023-04-01T17:10:29;4.88;;;1.40;;
15312;SDS011;7757;52.626;4.746;2023-04-01T17:13:39;3.50;;;1.23;;
15312;SDS011;7757;52.626;4.746;2023-04-01T17:16:45;4.97;;;1.30;;
15312;SDS011;7757;52.626;4.746;2023-04-01T17:19:42;5.68;;;1.42;;
15312;SDS011;7757;52.626;4.746;2023-04-01T17:22:46;4.85;;;1.38;;
15312;SDS011;7757;52.626;4.746;2023-04-01T17:25:40;3.33;;;1.20;;
15312;SDS011;7757;52.626;4.746;2023-04-01T17:28:42;4.90;;;1.45;;
15312;SDS011;7757;52.626;4.746;2023-04-01T17:31:39;4.22;;;1.25;;
15312;SDS011;7757;52.626;4.746;2023-04-01T17:34:33;4.50;;;1.25;;
15312;SDS011;7757;52.626;4.746;2023-04-01T17:37:34;6.28;;;1.40;;
15312;SDS011;7757;52.626;4.746;2023-04-01T17:43:29;8.07;;;1.40;;
15312;SDS011;7757;52.626;4.746;2023-04-01T17:46:25;4.15;;;1.30;;
15312;SDS011;7757;52.626;4.746;2023-04-01T17:49:19;4.05;;;1.20;;
15312;SDS011;7757;52.626;4.746;2023-04-01T17:52:12;5.18;;;1.23;;
15312;SDS011;7757;52.626;4.746;2023-04-01T17:55:15;4.32;;;1.30;;
15312;SDS011;7757;52.626;4.746;2023-04-01T17:58:19;4.93;;;1.25;;
15312;SDS011;7757;52.626;4.746;2023-04-01T18:01:10;4.30;;;1.25;;
15312;SDS011;7757;52.626;4.746;2023-04-01T18:04:15;5.03;;;1.45;;
15312;SDS011;7757;52.626;4.746;2023-04-01T18:07:16;6.43;;;1.40;;
15312;SDS011;7757;52.626;4.746;2023-04-01T18:10:18;6.78;;;1.40;;
15312;SDS011;7757;52.626;4.746;2023-04-01T18:13:23;5.70;;;1.55;;
15312;SDS011;7757;52.626;4.746;2023-04-01T18:16:28;4.97;;;1.20;;
15312;SDS011;7757;52.626;4.746;2023-04-01T18:19:25;6.30;;;1.50;;
15312;SDS011;7757;52.626;4.746;2023-04-01T18:22:21;7.55;;;1.63;;
15312;SDS011;7757;52.626;4.746;2023-04-01T18:25:21;4.30;;;1.25;;
15312;SDS011;7757;52.626;4.746;2023-04-01T18:28:18;4.65;;;1.27;;
15312;SDS011;7757;52.626;4.746;2023-04-01T18:31:09;4.07;;;1.30;;
15312;SDS011;7757;52.626;4.746;2023-04-01T18:34:02;5.00;;;1.23;;
15312;SDS011;7757;52.626;4.746;2023-04-01T18:36:54;5.25;;;1.40;;
15312;SDS011;7757;52.626;4.746;2023-04-01T18:39:46;4.85;;;1.35;;
15312;SDS011;7757;52.626;4.746;2023-04-01T18:42:38;4.70;;;1.50;;
15312;SDS011;7757;52.626;4.746;2023-04-01T18:45:31;5.30;;;1.50;;
15312;SDS011;7757;52.626;4.746;2023-04-01T18:48:37;5.88;;;1.60;;
15312;SDS011;7757;52.626;4.746;2023-04-01T18:51:36;7.28;;;1.63;;
15312;SDS011;7757;52.626;4.746;2023-04-01T18:54:29;5.15;;;1.55;;
15312;SDS011;7757;52.626;4.746;2023-04-01T18:57:17;7.05;;;1.70;;
15312;SDS011;7757;52.626;4.746;2023-04-01T19:00:05;6.35;;;1.48;;
15312;SDS011;7757;52.626;4.746;2023-04-01T19:03:01;4.45;;;1.48;;
15312;SDS011;7757;52.626;4.746;2023-04-01T19:05:52;6.50;;;1.60;;
15312;SDS011;7757;52.626;4.746;2023-04-01T19:08:42;6.47;;;1.60;;
15312;SDS011;7757;52.626;4.746;2023-04-01T19:11:30;5.72;;;1.40;;
15312;SDS011;7757;52.626;4.746;2023-04-01T19:14:23;5.15;;;1.40;;
15312;SDS011;7757;52.626;4.746;2023-04-01T19:17:22;5.55;;;1.42;;